Terminal Aerodrome Forecast
Issued by NWS

Home | Current Version | Previous Version | Text Only | Print | Product List | Glossary On
Versions: 1 2 3 4 5 6 7 8 9 10 11 12 13 14 15 16 17 18
000
FTUS43 KIND 031100
TAFBMG
TAF
KBMG 031122Z 0312/0412 13009KT P6SM BKN025 OVC040
     FM031400 15010KT P6SM OVC015 WS015/20035KT
      TEMPO 0314/0316 6SM -FZRA
     FM031600 17012KT 4SM -RA BR BKN006 OVC015 WS015/21038KT
     FM031800 19012KT 1 1/2SM -RA BR OVC004 WS015/21038KT
     FM032300 24010KT 1 1/2SM -RA BR OVC004
     FM040700 30007KT 3SM -RASN BR OVC006
     FM041100 32007KT P6SM OVC015
      AMD LTD TO CLD VIS AND WIND TIL 031400=

USA.gov is the U.S. government's official web portal to all federal, state and local government web resources and services.